Time;durP1;ratioP1;P1;durP2;ratioP2;P2;SDS_P1;SDS_P2;PMS_P1;PMS_P2;Temp;Humidity;BMP_temperature;BMP_pressure;BME280_temperature;BME280_humidity;BME280_pressure;Samples;Min_cycle;Max_cycle;Signal;HPM_P1;HPM_P2
2023/02/28 00:01:43;;;;;;;;;20.50;16.25;;;;;;;;5072940;27;51064;-50
2023/02/28 00:04:27;;;;;;;;;16.25;13.50;;;;;;;;5080703;27;51087;-51
2023/02/28 00:07:12;;;;;;;;;22.50;17.00;;;;;;;;5075326;27;51535;-48
2023/02/28 00:09:56;;;;;;;;;25.00;17.75;;;;;;;;5073101;27;51179;-49
2023/02/28 00:12:40;;;;;;;;;22.75;16.25;;;;;;;;5073476;27;51434;-48
2023/02/28 00:15:25;;;;;;;;;15.25;12.75;;;;;;;;5080640;27;51168;-49
2023/02/28 00:18:09;;;;;;;;;21.75;14.50;;;;;;;;5070380;27;51496;-47
2023/02/28 00:20:53;;;;;;;;;19.75;14.00;;;;;;;;5074545;27;51013;-51
2023/02/28 00:23:38;;;;;;;;;19.50;12.75;;;;;;;;5079200;27;51481;-50
2023/02/28 00:26:22;;;;;;;;;15.50;9.75;;;;;;;;5073886;27;51163;-49
2023/02/28 00:29:07;;;;;;;;;13.50;10.50;;;;;;;;5081247;27;51075;-49
2023/02/28 00:31:51;;;;;;;;;15.00;9.25;;;;;;;;5089684;27;51102;-47
2023/02/28 00:34:37;;;;;;;;;19.00;13.00;;;;;;;;5088849;27;51359;-51
2023/02/28 00:37:22;;;;;;;;;11.50;10.50;;;;;;;;5077998;27;51143;-47
2023/02/28 00:40:09;;;;;;;;;16.00;13.50;;;;;;;;5077649;27;51286;-47
2023/02/28 00:42:53;;;;;;;;;18.50;12.75;;;;;;;;5073872;27;51049;-48
2023/02/28 00:45:38;;;;;;;;;19.00;10.00;;;;;;;;5083393;27;51058;-50
2023/02/28 00:48:23;;;;;;;;;13.00;11.50;;;;;;;;5082605;27;51120;-52
2023/02/28 00:51:07;;;;;;;;;12.75;10.25;;;;;;;;5084964;27;51179;-48
2023/02/28 00:53:51;;;;;;;;;15.50;12.25;;;;;;;;5095445;27;51114;-50
2023/02/28 00:56:36;;;;;;;;;18.00;13.50;;;;;;;;5096038;27;51404;-51
2023/02/28 00:59:21;;;;;;;;;22.50;16.75;;;;;;;;5089304;27;51141;-48
2023/02/28 01:02:05;;;;;;;;;18.00;10.25;;;;;;;;5083273;27;51120;-50
2023/02/28 01:04:50;;;;;;;;;15.25;13.00;;;;;;;;5082057;27;51114;-50
2023/02/28 01:07:34;;;;;;;;;13.25;12.50;;;;;;;;5097587;27;51400;-51
2023/02/28 01:10:20;;;;;;;;;15.25;11.50;;;;;;;;5078537;27;51245;-51
2023/02/28 01:13:05;;;;;;;;;13.75;12.00;;;;;;;;5081477;27;51514;-46
2023/02/28 01:15:51;;;;;;;;;19.25;9.50;;;;;;;;5081334;27;51082;-49
2023/02/28 01:18:35;;;;;;;;;15.25;12.00;;;;;;;;5078628;27;51084;-47
2023/02/28 01:21:20;;;;;;;;;15.75;11.25;;;;;;;;5090450;27;51525;-47
2023/02/28 01:24:06;;;;;;;;;17.75;12.25;;;;;;;;5098637;27;51154;-48
2023/02/28 01:26:51;;;;;;;;;16.75;12.50;;;;;;;;5086545;27;51130;-46
2023/02/28 01:29:35;;;;;;;;;18.00;12.50;;;;;;;;5080053;27;51070;-47
2023/02/28 01:32:19;;;;;;;;;18.75;12.75;;;;;;;;5081747;27;51151;-49
2023/02/28 01:35:04;;;;;;;;;14.75;12.00;;;;;;;;5082369;27;51155;-48
2023/02/28 01:37:49;;;;;;;;;18.25;13.25;;;;;;;;5083517;27;51053;-50
2023/02/28 01:40:33;;;;;;;;;13.75;11.75;;;;;;;;5076305;27;51389;-50
2023/02/28 01:43:22;;;;;;;;;13.50;12.50;;;;;;;;5078786;27;51156;-48
2023/02/28 01:46:06;;;;;;;;;19.00;11.75;;;;;;;;5071826;27;51464;-49
2023/02/28 01:49:00;;;;;;;;;20.50;12.50;;;;;;;;5073443;27;51182;-51
2023/02/28 01:51:54;;;;;;;;;17.50;12.50;;;;;;;;5077725;27;51306;-50
2023/02/28 01:54:38;;;;;;;;;15.00;12.00;;;;;;;;5082774;27;51504;-48
2023/02/28 01:57:25;;;;;;;;;19.50;13.75;;;;;;;;5082410;27;51012;-49
2023/02/28 02:00:14;;;;;;;;;19.00;12.50;;;;;;;;5079622;27;51129;-48
2023/02/28 02:03:06;;;;;;;;;18.00;12.25;;;;;;;;5079084;27;51376;-48
2023/02/28 02:05:50;;;;;;;;;21.00;12.25;;;;;;;;5082543;27;51066;-50
2023/02/28 02:08:36;;;;;;;;;13.75;12.25;;;;;;;;5081072;27;51160;-51
2023/02/28 02:11:21;;;;;;;;;19.00;15.50;;;;;;;;5075156;27;51464;-50
2023/02/28 02:14:06;;;;;;;;;14.25;12.50;;;;;;;;5082587;27;51202;-47
2023/02/28 02:17:18;;;;;;;;;18.00;13.50;;;;;;;;5079539;27;51113;-49
2023/02/28 02:20:16;;;;;;;;;16.25;10.75;;;;;;;;5083078;27;51160;-48
2023/02/28 02:23:03;;;;;;;;;19.25;14.25;;;;;;;;5078961;27;51472;-49
2023/02/28 02:25:54;;;;;;;;;16.50;13.00;;;;;;;;5075036;27;51109;-50
2023/02/28 02:28:50;;;;;;;;;20.00;16.75;;;;;;;;5072193;27;51047;-50
2023/02/28 02:31:39;;;;;;;;;20.00;16.25;;;;;;;;5080926;27;51353;-45
2023/02/28 02:34:24;;;;;;;;;17.50;14.25;;;;;;;;5079167;27;51167;-48
2023/02/28 02:40:07;;;;;;;;;21.50;13.50;;;;;;;;5005026;28;51185;-48
2023/02/28 02:42:51;;;;;;;;;19.75;15.75;;;;;;;;5006752;28;51147;-48
2023/02/28 02:45:39;;;;;;;;;16.00;14.50;;;;;;;;5018133;28;51154;-48
2023/02/28 02:48:29;;;;;;;;;25.25;19.00;;;;;;;;5007254;28;51104;-51
2023/02/28 02:51:15;;;;;;;;;16.00;16.00;;;;;;;;5019050;28;51174;-46
2023/02/28 02:54:06;;;;;;;;;22.00;18.00;;;;;;;;5009326;28;51294;-51
2023/02/28 02:56:51;;;;;;;;;25.00;20.00;;;;;;;;5014471;28;51110;-49
2023/02/28 02:59:38;;;;;;;;;29.50;23.25;;;;;;;;5009749;28;51184;-51
2023/02/28 03:02:23;;;;;;;;;22.00;17.75;;;;;;;;5011242;28;51549;-49
2023/02/28 03:05:31;;;;;;;;;23.00;16.25;;;;;;;;5012682;28;51254;-49
2023/02/28 03:08:16;;;;;;;;;24.25;18.75;;;;;;;;5008223;28;51127;-51
2023/02/28 03:11:02;;;;;;;;;23.75;18.75;;;;;;;;5011592;28;51191;-49
2023/02/28 03:14:00;;;;;;;;;23.25;19.25;;;;;;;;5015007;28;51413;-49
2023/02/28 03:17:03;;;;;;;;;24.75;19.00;;;;;;;;5033539;27;51457;-48
2023/02/28 03:19:55;;;;;;;;;18.50;18.00;;;;;;;;5077842;27;51103;-51
2023/02/28 03:22:58;;;;;;;;;21.75;16.75;;;;;;;;5080823;27;51289;-52
2023/02/28 03:25:42;;;;;;;;;20.75;16.00;;;;;;;;5079630;27;51152;-49
2023/02/28 03:28:41;;;;;;;;;22.75;20.25;;;;;;;;5093097;27;51462;-52
2023/02/28 03:31:29;;;;;;;;;22.25;17.00;;;;;;;;5069646;27;51151;-49
2023/02/28 03:34:24;;;;;;;;;17.75;16.00;;;;;;;;5076985;27;51039;-51
2023/02/28 03:37:11;;;;;;;;;14.50;14.00;;;;;;;;5090435;27;51045;-49
2023/02/28 03:39:59;;;;;;;;;17.75;16.00;;;;;;;;5079259;27;51123;-48
2023/02/28 03:42:46;;;;;;;;;16.50;14.50;;;;;;;;5079386;27;51109;-52
2023/02/28 03:45:31;;;;;;;;;18.75;15.00;;;;;;;;5079239;27;51883;-52
2023/02/28 03:48:22;;;;;;;;;21.00;14.75;;;;;;;;5073810;27;51095;-49
2023/02/28 03:51:08;;;;;;;;;21.00;16.50;;;;;;;;5083088;27;51170;-49
2023/02/28 03:54:06;;;;;;;;;16.00;14.50;;;;;;;;5089972;27;51453;-51
2023/02/28 03:57:02;;;;;;;;;16.50;13.00;;;;;;;;5069566;27;51157;-52
2023/02/28 03:59:49;;;;;;;;;22.50;14.50;;;;;;;;5077252;27;51233;-53
2023/02/28 04:02:34;;;;;;;;;17.25;10.25;;;;;;;;5081362;27;51166;-53
2023/02/28 04:05:19;;;;;;;;;14.25;12.00;;;;;;;;5079917;27;51355;-54
2023/02/28 04:08:07;;;;;;;;;16.50;14.25;;;;;;;;5082843;27;51355;-48
2023/02/28 04:10:55;;;;;;;;;16.75;14.25;;;;;;;;5096067;27;51144;-53
2023/02/28 04:13:39;;;;;;;;;13.75;13.75;;;;;;;;5075591;27;51350;-50
2023/02/28 04:16:25;;;;;;;;;18.00;15.75;;;;;;;;5094122;27;51113;-52
2023/02/28 04:19:10;;;;;;;;;21.50;15.50;;;;;;;;5087207;27;51551;-51
2023/02/28 04:21:55;;;;;;;;;17.50;16.50;;;;;;;;5077309;27;51543;-51
2023/02/28 04:24:50;;;;;;;;;20.25;17.75;;;;;;;;5021053;28;51373;-54
2023/02/28 04:27:34;;;;;;;;;18.50;13.00;;;;;;;;5011894;28;51272;-49
2023/02/28 04:30:19;;;;;;;;;23.25;16.75;;;;;;;;5021816;28;51629;-50
2023/02/28 04:33:03;;;;;;;;;24.50;18.00;;;;;;;;5019269;28;51080;-51
2023/02/28 04:35:47;;;;;;;;;19.75;13.50;;;;;;;;5018328;28;51163;-50
2023/02/28 04:38:35;;;;;;;;;14.75;14.50;;;;;;;;5013541;28;51142;-48
2023/02/28 04:41:19;;;;;;;;;17.25;16.25;;;;;;;;5020093;28;51162;-50
2023/02/28 04:44:04;;;;;;;;;22.00;18.75;;;;;;;;5019023;28;51129;-51
2023/02/28 04:46:49;;;;;;;;;20.75;18.25;;;;;;;;5024307;28;51219;-52
2023/02/28 04:49:33;;;;;;;;;21.50;19.00;;;;;;;;5025540;28;51444;-46
2023/02/28 04:52:17;;;;;;;;;21.75;18.25;;;;;;;;5026154;28;51185;-51
2023/02/28 04:55:01;;;;;;;;;24.75;15.50;;;;;;;;5012919;28;51541;-49
2023/02/28 04:57:46;;;;;;;;;23.50;19.00;;;;;;;;5026957;28;51125;-46
2023/02/28 05:00:30;;;;;;;;;24.00;18.50;;;;;;;;5026801;28;51105;-50
2023/02/28 05:03:15;;;;;;;;;17.75;15.75;;;;;;;;5079815;28;51360;-50
2023/02/28 05:05:59;;;;;;;;;25.75;18.50;;;;;;;;5075421;28;51121;-54
2023/02/28 05:08:44;;;;;;;;;19.50;15.75;;;;;;;;5078392;28;51122;-48
2023/02/28 05:11:34;;;;;;;;;20.25;17.00;;;;;;;;5078159;28;51154;-50
2023/02/28 05:14:18;;;;;;;;;22.25;16.50;;;;;;;;5079282;28;51250;-51
2023/02/28 05:17:03;;;;;;;;;21.25;17.75;;;;;;;;5080138;28;50959;-50
2023/02/28 05:19:47;;;;;;;;;24.75;18.25;;;;;;;;5069655;28;51017;-51
2023/02/28 05:22:52;;;;;;;;;25.25;20.25;;;;;;;;5016867;28;51133;-51
2023/02/28 05:25:36;;;;;;;;;28.25;22.25;;;;;;;;5016788;28;51166;-49
2023/02/28 05:28:21;;;;;;;;;26.75;17.75;;;;;;;;5003222;28;53536;-53
2023/02/28 05:31:06;;;;;;;;;21.75;17.50;;;;;;;;5003093;28;51182;-52
2023/02/28 05:33:51;;;;;;;;;20.00;17.00;;;;;;;;4998068;28;51091;-49
2023/02/28 05:36:37;;;;;;;;;24.25;18.00;;;;;;;;4998416;28;51100;-53
2023/02/28 05:39:22;;;;;;;;;16.25;15.50;;;;;;;;5016468;28;51099;-52
2023/02/28 05:42:07;;;;;;;;;22.00;19.00;;;;;;;;5005021;28;51173;-50
2023/02/28 05:44:51;;;;;;;;;23.50;20.25;;;;;;;;5005061;28;51535;-47
2023/02/28 05:47:36;;;;;;;;;26.75;18.50;;;;;;;;5004429;28;51090;-50
2023/02/28 05:50:20;;;;;;;;;27.50;20.25;;;;;;;;4996934;28;51288;-50
2023/02/28 05:53:04;;;;;;;;;31.50;23.75;;;;;;;;5028623;27;51047;-52
2023/02/28 05:55:48;;;;;;;;;27.00;21.50;;;;;;;;5081035;27;51198;-50
2023/02/28 05:58:33;;;;;;;;;20.75;16.50;;;;;;;;5079129;27;51549;-49
2023/02/28 06:01:22;;;;;;;;;24.50;22.50;;;;;;;;5082576;27;51001;-48
2023/02/28 06:04:08;;;;;;;;;27.50;21.25;;;;;;;;5075020;27;51265;-51
2023/02/28 06:06:53;;;;;;;;;25.50;20.50;;;;;;;;5082469;27;51015;-50
2023/02/28 06:09:38;;;;;;;;;23.50;21.00;;;;;;;;5080929;27;51080;-48
2023/02/28 06:12:22;;;;;;;;;22.25;21.75;;;;;;;;5080706;27;51170;-50
2023/02/28 06:15:07;;;;;;;;;36.00;23.75;;;;;;;;5075339;27;51511;-52
2023/02/28 06:17:52;;;;;;;;;27.25;19.75;;;;;;;;5081881;27;51237;-51
2023/02/28 06:20:37;;;;;;;;;21.50;19.00;;;;;;;;5079107;27;51240;-49
2023/02/28 06:23:21;;;;;;;;;28.75;22.25;;;;;;;;5078115;27;51455;-51
2023/02/28 06:26:05;;;;;;;;;29.00;22.00;;;;;;;;5077759;27;51531;-49
2023/02/28 06:28:50;;;;;;;;;24.75;23.00;;;;;;;;5089308;27;51125;-47
2023/02/28 06:31:35;;;;;;;;;29.00;24.00;;;;;;;;5081515;27;51141;-45
2023/02/28 06:34:19;;;;;;;;;29.25;24.50;;;;;;;;5081731;27;51137;-45
2023/02/28 06:37:04;;;;;;;;;36.25;31.25;;;;;;;;5074006;27;51150;-43
2023/02/28 06:39:48;;;;;;;;;41.00;35.00;;;;;;;;5078173;27;51000;-44
2023/02/28 06:42:32;;;;;;;;;35.25;30.25;;;;;;;;5078312;27;51224;-46
2023/02/28 06:45:17;;;;;;;;;45.00;32.50;;;;;;;;5082407;27;51065;-45
2023/02/28 06:48:01;;;;;;;;;44.25;30.00;;;;;;;;5063164;27;51372;-44
2023/02/28 06:50:46;;;;;;;;;42.25;33.00;;;;;;;;5079533;27;51120;-44
2023/02/28 06:53:31;;;;;;;;;37.75;32.50;;;;;;;;5080575;27;51354;-44
2023/02/28 06:56:16;;;;;;;;;50.00;39.00;;;;;;;;5072069;27;51208;-43
2023/02/28 06:59:01;;;;;;;;;44.50;35.25;;;;;;;;5075679;27;51336;-45
2023/02/28 07:01:50;;;;;;;;;36.25;30.00;;;;;;;;4982387;28;51110;-43
2023/02/28 07:04:34;;;;;;;;;44.25;33.50;;;;;;;;4998617;28;51633;-42
2023/02/28 07:07:18;;;;;;;;;43.00;34.75;;;;;;;;4998833;28;51475;-44
2023/02/28 07:10:03;;;;;;;;;46.75;33.75;;;;;;;;4997946;28;51152;-48
2023/02/28 07:12:47;;;;;;;;;39.50;33.25;;;;;;;;4991435;28;51216;-44
2023/02/28 07:15:31;;;;;;;;;44.25;33.50;;;;;;;;4982793;28;51185;-44
2023/02/28 07:18:15;;;;;;;;;32.00;26.00;;;;;;;;4983291;28;51143;-44
2023/02/28 07:21:03;;;;;;;;;47.00;36.50;;;;;;;;4998362;28;51012;-45
2023/02/28 07:23:48;;;;;;;;;36.00;29.25;;;;;;;;4996595;28;51293;-46
2023/02/28 07:26:33;;;;;;;;;37.25;32.00;;;;;;;;4984571;28;51168;-46
2023/02/28 07:29:18;;;;;;;;;38.00;31.00;;;;;;;;4985783;28;51586;-44
2023/02/28 07:32:02;;;;;;;;;39.75;32.00;;;;;;;;4978896;28;51118;-46
2023/02/28 07:34:46;;;;;;;;;37.75;31.50;;;;;;;;4997462;28;51136;-45
2023/02/28 07:37:36;;;;;;;;;43.75;33.25;;;;;;;;4997668;28;51233;-43
2023/02/28 07:40:21;;;;;;;;;43.75;35.25;;;;;;;;5060048;28;51118;-44
2023/02/28 07:43:08;;;;;;;;;33.25;28.50;;;;;;;;5059373;28;51311;-43
2023/02/28 07:45:52;;;;;;;;;35.00;27.00;;;;;;;;5056090;28;51167;-44
2023/02/28 07:48:37;;;;;;;;;37.00;31.25;;;;;;;;5050818;28;51615;-43
2023/02/28 07:51:22;;;;;;;;;35.50;29.50;;;;;;;;5054867;28;51218;-57
2023/02/28 07:54:06;;;;;;;;;36.00;29.00;;;;;;;;5055453;28;51609;-46
2023/02/28 07:56:50;;;;;;;;;40.50;28.50;;;;;;;;5053333;28;51211;-44
2023/02/28 07:59:35;;;;;;;;;34.00;28.50;;;;;;;;5052833;28;51187;-48
2023/02/28 08:02:19;;;;;;;;;34.50;29.00;;;;;;;;5052779;28;51973;-44
2023/02/28 08:05:04;;;;;;;;;36.75;30.25;;;;;;;;5054266;28;51645;-42
2023/02/28 08:07:49;;;;;;;;;38.75;29.25;;;;;;;;5052353;28;51145;-43
2023/02/28 08:10:34;;;;;;;;;37.00;28.00;;;;;;;;5053801;28;51052;-42
2023/02/28 08:13:18;;;;;;;;;35.75;27.75;;;;;;;;5040467;28;52235;-44
2023/02/28 08:16:02;;;;;;;;;27.00;23.00;;;;;;;;5050560;28;51194;-47
2023/02/28 08:18:47;;;;;;;;;34.75;29.00;;;;;;;;5052563;28;51492;-43
2023/02/28 08:21:32;;;;;;;;;31.50;26.50;;;;;;;;5051427;28;51150;-45
2023/02/28 08:24:16;;;;;;;;;32.25;27.00;;;;;;;;5051292;28;51192;-43
2023/02/28 08:27:01;;;;;;;;;34.25;29.25;;;;;;;;5047456;28;51152;-50
2023/02/28 08:29:45;;;;;;;;;34.75;29.00;;;;;;;;5075871;27;51410;-45
2023/02/28 08:32:30;;;;;;;;;32.00;28.75;;;;;;;;5076672;27;51130;-45
2023/02/28 08:35:15;;;;;;;;;28.75;26.75;;;;;;;;5075313;27;51205;-44
2023/02/28 08:37:59;;;;;;;;;40.25;26.50;;;;;;;;5072953;27;51196;-48
2023/02/28 08:40:43;;;;;;;;;30.50;26.75;;;;;;;;5078482;27;51109;-47
2023/02/28 08:43:28;;;;;;;;;24.75;21.50;;;;;;;;5069732;28;51587;-44
2023/02/28 08:46:13;;;;;;;;;25.25;19.50;;;;;;;;5078121;28;51058;-47
2023/02/28 08:48:59;;;;;;;;;21.00;18.00;;;;;;;;5079323;28;51007;-43
2023/02/28 08:51:51;;;;;;;;;23.00;19.75;;;;;;;;5016629;28;51093;-45
2023/02/28 08:54:36;;;;;;;;;21.25;18.75;;;;;;;;5016901;28;51447;-47
2023/02/28 08:57:20;;;;;;;;;17.50;14.00;;;;;;;;5015866;28;51128;-45
2023/02/28 09:00:05;;;;;;;;;19.00;15.25;;;;;;;;5013782;28;51144;-45
2023/02/28 09:02:49;;;;;;;;;27.00;18.75;;;;;;;;5016789;28;51160;-44
2023/02/28 09:05:34;;;;;;;;;19.25;16.50;;;;;;;;5015796;28;51112;-43
2023/02/28 09:08:18;;;;;;;;;18.75;15.00;;;;;;;;5016508;28;51539;-46
2023/02/28 09:11:02;;;;;;;;;18.25;15.50;;;;;;;;5013360;28;51153;-44
2023/02/28 09:13:47;;;;;;;;;17.25;15.50;;;;;;;;5016068;28;51180;-47
2023/02/28 09:16:31;;;;;;;;;15.50;14.00;;;;;;;;5015904;28;51272;-48
2023/02/28 09:19:15;;;;;;;;;17.25;15.00;;;;;;;;5016674;28;51446;-45
2023/02/28 09:21:59;;;;;;;;;14.00;12.25;;;;;;;;5016541;28;51109;-46
2023/02/28 09:24:44;;;;;;;;;14.25;14.00;;;;;;;;5015522;28;51122;-46
2023/02/28 09:27:29;;;;;;;;;16.75;14.25;;;;;;;;5014311;28;51635;-45
2023/02/28 09:30:14;;;;;;;;;19.50;13.50;;;;;;;;5069436;27;51197;-45
2023/02/28 09:32:58;;;;;;;;;15.50;14.25;;;;;;;;5083307;27;51084;-42
2023/02/28 09:35:43;;;;;;;;;16.50;12.00;;;;;;;;5081803;27;51139;-43
2023/02/28 09:38:27;;;;;;;;;19.25;14.50;;;;;;;;5082665;27;51073;-46
2023/02/28 09:41:16;;;;;;;;;20.25;14.00;;;;;;;;5072316;27;51503;-47
2023/02/28 09:44:03;;;;;;;;;17.25;14.25;;;;;;;;5081064;27;51161;-47
2023/02/28 09:46:49;;;;;;;;;19.25;14.00;;;;;;;;5077014;27;51116;-45
2023/02/28 09:49:40;;;;;;;;;18.50;15.25;;;;;;;;5079919;27;51144;-45
2023/02/28 09:52:31;;;;;;;;;19.75;15.00;;;;;;;;5082740;27;51167;-43
2023/02/28 09:55:16;;;;;;;;;21.00;13.75;;;;;;;;5076762;27;51279;-44
2023/02/28 09:58:01;;;;;;;;;16.25;16.25;;;;;;;;5080870;27;51153;-44
2023/02/28 10:00:51;;;;;;;;;23.00;17.00;;;;;;;;5075927;27;51159;-44
2023/02/28 10:03:39;;;;;;;;;17.25;14.75;;;;;;;;5076336;27;51139;-46
2023/02/28 10:06:28;;;;;;;;;17.25;14.00;;;;;;;;5076307;27;51226;-49
2023/02/28 10:09:16;;;;;;;;;15.25;14.50;;;;;;;;5079556;27;51459;-45
2023/02/28 10:12:06;;;;;;;;;18.50;13.25;;;;;;;;5081970;27;51134;-44
2023/02/28 10:14:55;;;;;;;;;15.75;14.00;;;;;;;;5079220;27;51057;-46
2023/02/28 10:17:41;;;;;;;;;18.50;15.00;;;;;;;;5074849;27;51399;-45
2023/02/28 10:20:34;;;;;;;;;20.00;15.75;;;;;;;;5080743;27;51491;-46
2023/02/28 10:23:25;;;;;;;;;18.50;13.00;;;;;;;;5077085;27;51426;-43
2023/02/28 10:26:15;;;;;;;;;20.25;13.00;;;;;;;;5077467;27;51208;-44
2023/02/28 10:29:00;;;;;;;;;15.25;13.25;;;;;;;;5077012;27;51138;-47
2023/02/28 10:31:44;;;;;;;;;17.00;13.50;;;;;;;;5076705;27;51122;-45
2023/02/28 10:34:29;;;;;;;;;24.00;19.50;;;;;;;;5080126;27;51462;-45
2023/02/28 10:37:13;;;;;;;;;19.00;15.25;;;;;;;;5081467;27;51162;-46
2023/02/28 10:39:58;;;;;;;;;19.00;13.50;;;;;;;;5077277;27;51159;-44
2023/02/28 10:42:43;;;;;;;;;15.75;12.50;;;;;;;;5081818;27;51221;-43
2023/02/28 10:45:29;;;;;;;;;13.25;11.25;;;;;;;;5081030;27;51465;-45
2023/02/28 10:48:13;;;;;;;;;17.75;13.25;;;;;;;;5073143;27;51525;-46
2023/02/28 10:50:59;;;;;;;;;18.75;14.75;;;;;;;;5080874;27;51068;-43
2023/02/28 10:53:43;;;;;;;;;17.00;13.00;;;;;;;;5081005;27;51238;-45
2023/02/28 10:56:27;;;;;;;;;18.50;14.00;;;;;;;;5081494;27;51004;-46
2023/02/28 10:59:15;;;;;;;;;22.00;17.75;;;;;;;;5079593;27;51353;-45
2023/02/28 11:01:59;;;;;;;;;16.25;13.75;;;;;;;;5076952;27;51186;-45
2023/02/28 11:04:44;;;;;;;;;19.75;17.50;;;;;;;;5074968;27;51146;-44
2023/02/28 11:07:28;;;;;;;;;17.25;13.75;;;;;;;;5074120;27;51112;-45
2023/02/28 11:10:19;;;;;;;;;16.25;12.75;;;;;;;;5075121;27;51051;-47
2023/02/28 11:13:03;;;;;;;;;13.00;13.00;;;;;;;;5081732;27;51105;-48
2023/02/28 11:15:52;;;;;;;;;16.50;14.50;;;;;;;;5080344;27;51164;-45
2023/02/28 11:18:40;;;;;;;;;20.25;13.50;;;;;;;;5079802;27;51505;-46
2023/02/28 11:21:26;;;;;;;;;21.25;15.25;;;;;;;;5073729;27;51131;-46
2023/02/28 11:24:26;;;;;;;;;16.50;12.75;;;;;;;;5079551;27;51142;-43
2023/02/28 11:27:46;;;;;;;;;16.50;13.50;;;;;;;;5080805;27;51332;-43
2023/02/28 11:30:33;;;;;;;;;18.00;13.25;;;;;;;;5074141;27;51183;-44
2023/02/28 11:33:18;;;;;;;;;19.50;15.75;;;;;;;;5076467;27;51560;-43
2023/02/28 11:36:08;;;;;;;;;23.00;14.50;;;;;;;;5075214;27;51519;-45
2023/02/28 11:38:53;;;;;;;;;18.25;12.75;;;;;;;;5065239;27;51569;-46
2023/02/28 11:41:47;;;;;;;;;20.75;14.50;;;;;;;;5080377;27;51160;-47
2023/02/28 11:44:51;;;;;;;;;21.25;16.50;;;;;;;;5073863;27;51062;-45
2023/02/28 11:47:45;;;;;;;;;19.00;15.00;;;;;;;;5080173;27;51113;-47
2023/02/28 11:50:35;;;;;;;;;22.00;15.00;;;;;;;;5078043;27;51169;-43
2023/02/28 11:53:19;;;;;;;;;18.00;13.75;;;;;;;;5078854;27;51179;-43
2023/02/28 11:56:13;;;;;;;;;15.50;13.00;;;;;;;;5080180;27;51435;-48
2023/02/28 11:59:04;;;;;;;;;17.50;12.75;;;;;;;;5078545;27;51047;-45
2023/02/28 12:02:01;;;;;;;;;15.75;13.25;;;;;;;;5080186;27;51184;-43
2023/02/28 12:04:45;;;;;;;;;16.75;13.75;;;;;;;;5076242;27;51318;-45
2023/02/28 12:07:44;;;;;;;;;22.25;18.25;;;;;;;;5075916;27;51047;-46
2023/02/28 12:10:54;;;;;;;;;19.00;13.75;;;;;;;;5077392;27;51466;-44
2023/02/28 12:16:49;;;;;;;;;19.00;16.75;;;;;;;;5041986;28;51085;-44
2023/02/28 12:19:43;;;;;;;;;20.00;17.50;;;;;;;;5042049;28;51169;-44
2023/02/28 12:22:30;;;;;;;;;17.25;14.75;;;;;;;;5039367;28;51126;-43
2023/02/28 12:25:32;;;;;;;;;25.00;15.75;;;;;;;;5053084;28;51052;-43
2023/02/28 12:28:21;;;;;;;;;20.00;14.75;;;;;;;;5037525;28;51309;-44
2023/02/28 12:31:17;;;;;;;;;18.25;16.00;;;;;;;;5037138;28;51176;-45
2023/02/28 12:34:06;;;;;;;;;16.75;15.25;;;;;;;;5040813;28;51149;-44
2023/02/28 12:36:52;;;;;;;;;18.25;15.25;;;;;;;;5052516;28;51326;-43
2023/02/28 12:39:44;;;;;;;;;17.00;14.75;;;;;;;;5046451;28;51429;-44
2023/02/28 12:42:33;;;;;;;;;21.75;13.75;;;;;;;;5037002;28;51363;-46
2023/02/28 12:45:32;;;;;;;;;17.00;14.75;;;;;;;;5037054;28;51243;-45
2023/02/28 12:48:20;;;;;;;;;16.75;13.25;;;;;;;;5037113;28;51311;-42
2023/02/28 12:51:06;;;;;;;;;17.75;14.00;;;;;;;;5044728;28;51401;-44
2023/02/28 12:53:56;;;;;;;;;17.25;12.00;;;;;;;;5060914;28;51175;-44
2023/02/28 12:56:49;;;;;;;;;18.75;12.00;;;;;;;;5079716;28;51165;-43
2023/02/28 12:59:40;;;;;;;;;17.00;11.50;;;;;;;;5076949;28;51186;-48
2023/02/28 13:02:42;;;;;;;;;18.75;12.50;;;;;;;;5081895;27;51418;-42
2023/02/28 13:05:36;;;;;;;;;16.00;13.25;;;;;;;;5077354;27;51162;-45
2023/02/28 13:08:24;;;;;;;;;21.00;15.25;;;;;;;;5079286;27;51379;-44
2023/02/28 13:11:22;;;;;;;;;19.00;14.00;;;;;;;;5083445;27;51055;-43
2023/02/28 13:14:18;;;;;;;;;18.00;15.75;;;;;;;;5082976;27;51095;-42
2023/02/28 13:17:28;;;;;;;;;18.00;12.75;;;;;;;;5079773;27;51166;-45
2023/02/28 13:20:34;;;;;;;;;16.50;12.75;;;;;;;;5079969;27;51177;-44
2023/02/28 13:23:37;;;;;;;;;17.00;13.00;;;;;;;;5083250;27;51148;-45
2023/02/28 13:26:22;;;;;;;;;23.25;15.75;;;;;;;;5080947;27;51168;-46
2023/02/28 13:29:16;;;;;;;;;16.25;14.00;;;;;;;;5092626;27;51540;-41
2023/02/28 13:32:23;;;;;;;;;14.75;12.50;;;;;;;;5074969;27;51159;-47
2023/02/28 13:35:07;;;;;;;;;19.00;13.25;;;;;;;;5071268;27;50996;-43
2023/02/28 13:38:09;;;;;;;;;16.00;14.00;;;;;;;;5077627;27;51159;-45
2023/02/28 13:40:53;;;;;;;;;17.25;10.75;;;;;;;;5090667;27;51062;-46
2023/02/28 13:43:56;;;;;;;;;18.50;14.75;;;;;;;;5081596;27;51417;-44
2023/02/28 13:46:47;;;;;;;;;19.50;14.75;;;;;;;;5081933;27;51071;-44
2023/02/28 13:49:32;;;;;;;;;20.25;13.75;;;;;;;;5080133;27;51060;-43
2023/02/28 13:52:19;;;;;;;;;14.50;12.25;;;;;;;;5080791;27;51145;-44
2023/02/28 13:55:19;;;;;;;;;19.75;14.00;;;;;;;;5078781;27;51099;-45
2023/02/28 13:58:03;;;;;;;;;23.00;14.75;;;;;;;;5082033;27;51080;-44
2023/02/28 14:01:04;;;;;;;;;18.50;14.25;;;;;;;;5081898;27;51409;-43
2023/02/28 14:03:54;;;;;;;;;21.00;15.25;;;;;;;;5077734;27;51101;-44
2023/02/28 14:06:39;;;;;;;;;20.50;14.50;;;;;;;;5079842;27;51551;-46
2023/02/28 14:09:23;;;;;;;;;15.50;12.25;;;;;;;;5078406;27;51114;-43
2023/02/28 14:12:26;;;;;;;;;17.00;14.50;;;;;;;;5077333;27;51147;-42
2023/02/28 14:15:29;;;;;;;;;22.50;15.25;;;;;;;;5081114;27;51185;-44
2023/02/28 14:18:20;;;;;;;;;24.75;15.00;;;;;;;;5072547;27;51105;-45
2023/02/28 14:21:07;;;;;;;;;14.00;10.50;;;;;;;;5077434;27;51149;-41
2023/02/28 14:24:00;;;;;;;;;19.00;12.50;;;;;;;;5080469;27;51233;-45
2023/02/28 14:27:03;;;;;;;;;20.75;14.25;;;;;;;;5081650;27;51324;-42
2023/02/28 14:29:52;;;;;;;;;18.75;15.50;;;;;;;;5079805;27;51147;-45
2023/02/28 14:32:55;;;;;;;;;15.75;11.50;;;;;;;;5081989;27;51121;-44
2023/02/28 14:35:58;;;;;;;;;22.50;15.25;;;;;;;;5081071;27;51449;-43
2023/02/28 14:38:48;;;;;;;;;16.75;14.25;;;;;;;;5077644;27;51122;-44
2023/02/28 14:41:38;;;;;;;;;18.00;15.75;;;;;;;;5081878;27;51220;-44
2023/02/28 14:44:26;;;;;;;;;12.75;10.50;;;;;;;;5075861;27;50970;-43
2023/02/28 14:47:16;;;;;;;;;24.25;16.00;;;;;;;;5081687;27;51090;-47
2023/02/28 14:50:00;;;;;;;;;19.00;14.50;;;;;;;;5079232;27;51022;-44
2023/02/28 14:52:45;;;;;;;;;25.75;14.50;;;;;;;;5081361;27;51652;-44
2023/02/28 14:55:31;;;;;;;;;22.25;14.50;;;;;;;;5076541;27;51144;-46
2023/02/28 14:58:24;;;;;;;;;25.75;16.75;;;;;;;;5081814;27;51171;-43
2023/02/28 15:01:10;;;;;;;;;30.75;21.00;;;;;;;;5081065;27;51403;-45
2023/02/28 15:04:17;;;;;;;;;22.25;17.50;;;;;;;;5081361;27;51245;-44
2023/02/28 15:07:08;;;;;;;;;18.25;16.50;;;;;;;;5081197;27;51085;-45
2023/02/28 15:10:06;;;;;;;;;22.75;15.75;;;;;;;;5071882;27;51388;-43
2023/02/28 15:12:58;;;;;;;;;21.00;15.50;;;;;;;;5079980;27;51254;-42
2023/02/28 15:15:54;;;;;;;;;20.25;17.00;;;;;;;;5080684;27;51080;-42
2023/02/28 15:18:44;;;;;;;;;20.50;17.25;;;;;;;;5078385;27;51464;-45
2023/02/28 15:21:36;;;;;;;;;19.25;13.50;;;;;;;;5078922;27;51077;-43
2023/02/28 15:24:31;;;;;;;;;21.50;15.50;;;;;;;;5076737;27;51174;-46
2023/02/28 15:27:23;;;;;;;;;20.50;16.00;;;;;;;;5080816;27;51573;-45
2023/02/28 15:30:15;;;;;;;;;30.00;19.50;;;;;;;;5076289;27;51556;-43
2023/02/28 15:33:19;;;;;;;;;20.25;16.00;;;;;;;;5080634;27;51011;-44
2023/02/28 15:36:14;;;;;;;;;16.50;15.00;;;;;;;;5074836;27;51161;-42
2023/02/28 15:39:00;;;;;;;;;19.75;15.75;;;;;;;;5073869;27;51328;-44
2023/02/28 15:41:44;;;;;;;;;21.50;18.25;;;;;;;;5075211;27;51282;-43
2023/02/28 15:44:33;;;;;;;;;18.25;14.75;;;;;;;;5058887;27;51325;-43
2023/02/28 15:47:20;;;;;;;;;25.75;19.75;;;;;;;;5077587;27;51121;-42
2023/02/28 15:50:10;;;;;;;;;22.25;16.75;;;;;;;;5080968;27;51142;-52
2023/02/28 15:52:55;;;;;;;;;22.50;18.25;;;;;;;;5080397;27;51616;-41
2023/02/28 15:55:39;;;;;;;;;24.50;16.75;;;;;;;;5079545;27;51561;-41
2023/02/28 15:58:25;;;;;;;;;20.50;18.25;;;;;;;;5080262;27;51116;-41
2023/02/28 16:01:15;;;;;;;;;23.25;19.50;;;;;;;;5077259;27;51077;-40
2023/02/28 16:04:04;;;;;;;;;28.75;15.50;;;;;;;;5076912;27;51191;-40
2023/02/28 16:06:58;;;;;;;;;25.25;15.00;;;;;;;;5068795;27;51099;-41
2023/02/28 16:09:42;;;;;;;;;23.00;18.25;;;;;;;;5077715;27;51102;-40
2023/02/28 16:12:28;;;;;;;;;21.75;15.75;;;;;;;;5076476;27;51116;-40
2023/02/28 16:15:19;;;;;;;;;15.25;11.00;;;;;;;;5076654;27;50984;-41
2023/02/28 16:18:03;;;;;;;;;27.25;17.50;;;;;;;;5080427;27;51236;-41
2023/02/28 16:20:48;;;;;;;;;21.50;14.75;;;;;;;;5078140;27;51442;-40
2023/02/28 16:23:32;;;;;;;;;20.50;16.75;;;;;;;;5079126;27;51254;-41